Aérodrome :
LOGIN :

S'inscrire | Disclaimer

   EN    FR    IT 

 










Légende :    VFR   VFR Marginal   IFR   IFR Intensif   IFR Très Intensif
Visi : 
Plafond : 
>= 8 km
>= 3000ft
5 à 8 km
1000 à 3000 ft
1500m à 5 km
500 à 1000 ft
800 à 1500m
200 à 500 ft
< 800m
< 200 ft
Symboles :   Orages  Brouillard  Fortes neiges  Fortes précipitations  Vent > 20 kt
SIGMETs :   Divers  Orages  Givrage  Turbulence  Onde Orograph.  Cendres Volcan.






- Altitude de l'aérodrome : 33 ft
- Code IATA : MHZ


EGUN - RAF Mildenhall

DERNIER METAR :
  • 091955Z AUTO 26006KT 9999 FEW030 M01/M01 A2975 RMK AO2 SLP078 T10111011 $

METARs EXPIRÉS :
  • 091935Z AUTO 25004KT 9999 SCT033 M01/M01 A2975 RMK AO2 SLP078 $
  • 090504Z 27005KT 9999 SCT030 M02/M02 A2974 RMK SGB0537E04 SLP075 $
  • 091855Z AUTO 26005KT 9999 BKN033 M02/M02 A2975 RMK AO2 SLP078 T10181018 $
  • 091755Z AUTO 25004KT 9999 CLR M02/M02 A2974 RMK AO2 SLP075 T10171017 10028 21017 50001 $
  • 091655Z 23004KT 9999 FEW200 M01/M01 A2974 RMK AO2A SLP075 T10061006 $

TAF TAF EGUN
Valide du 09 à 12h jusqu'au 10 à 18h UTC


091200Z 0912/1018 30009KT 9999 FEW150 QNH2973INS
BECMG 0918/0919 28006KT 9000 BR FEW020 SCT040 QNH2975INS
BECMG 0920/0921 27006KT 8000 BR FEW015 SCT030 QNH2976INS
BECMG 0922/0923 27006KT 8000 BR SCT010 SCT020 QNH2976INS
BECMG 1002/1003 25006KT 5000 BR SCT007 BKN020 620202 QNH2977INS
TEMPO 1003/1006 BKN007 BKN015
BECMG 1008/1009 23006KT 9000 BR FEW020 SCT050 QNH2978INS TX03/0915Z TNM03/1002Z



MET'MAP, la Météo Aéronautique d'un coup d'oeil ! - Copyright ORBIFLY Décembre 2007 - Disclaimer

ORBIFLY MET'MAP TEAM :

Programmation & Développement : Alexandra Zaïnal
Sur une idée originale de : Baudouin d'Aumeries
Soutien technique & logistique : Manuel Goepfert
Assistance : Marc-Olivier Méhu




SOURCES & CREDITS :

   NOAA